Skip to main content.
Our real time weather data display below is updated continuously via our 24/7 live data feed.
 TIME   TEMPERATURE   WINDSPEED   DIRECTION   HUMIDITY   BAROMETER   RAINFALL 
11:50 22.4°C (72.3°F) 1.9 kmh (1.2 mph) NNW 86% 1013.4hPa (29.93 inHg) 0.0mm (0.00 in.)
10:50 22.8°C (73.0 °F) 0.0 kmh (0.0 mph) NNW 85% 1013.4hPa (29.93 inHg) 0.0mm (0.00 in.)
9:50 23.2°C (73.8 °F) 0.0 kmh (0.0 mph) NNW 80% 1013.3hPa (29.92 inHg) 0.0mm (0.00 in.)
8:50 23.9°C (75.0 °F) 0.0 kmh (0.0 mph) NNW 77% 1012.8hPa (29.91 inHg) 0.0mm (0.00 in.)
7:50 24.8°C (76.6 °F) 0.0 kmh (0.0 mph) N 63% 1012.5hPa (29.90 inHg) 0.0mm (0.00 in.)
6:50 26.3°C (79.3 °F) 3.7 kmh (2.3 mph) WNW 66% 1012.4hPa (29.90 inHg) 0.0mm (0.00 in.)
5:50 27.3°C (81.1 °F) 0.0 kmh (0.0 mph) W 62% 1012.6hPa (29.90 inHg) 0.0mm (0.00 in.)
4:50 27.7°C (81.9 °F) 3.7 kmh (2.3 mph) ENE 64% 1013.1hPa (29.92 inHg) 0.0mm (0.00 in.)
3:50 27.4°C (81.3 °F) 5.6 kmh (3.5 mph) SW 63% 1012.9hPa (29.91 inHg) 0.0mm (0.00 in.)
2:50 28.1°C (82.6 °F) 7.4 kmh (4.6 mph) WSW 63% 1013.4hPa (29.93 inHg) 0.0mm (0.00 in.)
1:50 26.7°C (80.1 °F) 9.3 kmh (5.8 mph) N 60% 1013.5hPa (29.93 inHg) 0.0mm (0.00 in.)
12:50 27.8°C (82.0 °F) 5.6 kmh (3.5 mph) WNW 62% 1013.8hPa (29.94 inHg) 0.0mm (0.00 in.)
11:50 27.4°C (81.3 °F) 9.3 kmh (5.8 mph) WSW 64% 1013.8hPa (29.94 inHg) 0.0mm (0.00 in.)
10:50 25.9°C (78.6 °F) 14.8 kmh (9.2 mph) N 71% 1013.8hPa (29.94 inHg) 0.0mm (0.00 in.)
9:50 26.1°C (79.0 °F) 3.7 kmh (2.3 mph) NNW 73% 1013.8hPa (29.94 inHg) 0.0mm (0.00 in.)
8:50 25.9°C (78.6 °F) 0.0 kmh (0.0 mph) W 79% 1013.8hPa (29.94 inHg) 0.0mm (0.00 in.)
7:50 23.3°C (73.9 °F) 0.0 kmh (0.0 mph) WNW 90% 1013.5hPa (29.93 inHg) 0.0mm (0.00 in.)
6:50 22.9°C (73.2 °F) 0.0 kmh (0.0 mph) WNW 96% 1013.3hPa (29.92 inHg) 0.0mm (0.00 in.)
5:50 22.5°C (72.5 °F) 0.0 kmh (0.0 mph) W 96% 1012.9hPa (29.91 inHg) 0.0mm (0.00 in.)
4:50 22.6°C (72.7 °F) 0.0 kmh (0.0 mph) WNW 97% 1012.8hPa (29.91 inHg) 0.0mm (0.00 in.)
3:50 22.6°C (72.7 °F) 0.0 kmh (0.0 mph) W 96% 1012.5hPa (29.90 inHg) 0.0mm (0.00 in.)
2:50 22.9°C (73.2 °F) 0.0 kmh (0.0 mph) SW 95% 1012.6hPa (29.90 inHg) 0.0mm (0.00 in.)
1:50 22.9°C (73.2 °F) 0.0 kmh (0.0 mph) WSW 94% 1013.2hPa (29.92 inHg) 0.0mm (0.00 in.)
12:50 22.9°C (73.2 °F) 0.0 kmh (0.0 mph) WSW 94% 1013.4hPa (29.93 inHg) 0.0mm (0.00 in.)